createdAt,value
2019-04-11T00:00:39.750Z,80.90
2019-04-11T00:01:44.952Z,81.05
2019-04-11T00:02:40.568Z,81.56
2019-04-11T00:03:39.792Z,81.43
2019-04-11T00:04:40.128Z,81.71
2019-04-11T00:05:39.817Z,81.05
2019-04-11T00:06:39.844Z,80.76
2019-04-11T00:07:40.518Z,81.05
2019-04-11T00:08:39.862Z,81.43
2019-04-11T00:09:40.792Z,81.90
2019-04-11T00:10:39.890Z,81.99
2019-04-11T00:11:39.913Z,82.28
2019-04-11T00:12:40.934Z,81.52
2019-04-11T00:13:41.025Z,81.71
2019-04-11T00:14:40.113Z,82.09
2019-04-11T00:15:40.436Z,81.99
2019-04-11T00:16:39.971Z,81.81
2019-04-11T00:17:39.985Z,82.85
2019-04-11T00:18:40.933Z,82.47
2019-04-11T00:19:40.011Z,82.66
2019-04-11T00:20:40.283Z,83.23
2019-04-11T00:21:41.207Z,83.42
2019-04-11T00:22:40.052Z,83.04
2019-04-11T00:23:40.562Z,83.23
2019-04-11T00:24:40.080Z,83.13
2019-04-11T00:25:40.097Z,83.32
2019-04-11T00:26:40.317Z,83.32
2019-04-11T00:27:41.280Z,83.04
2019-04-11T00:28:40.136Z,83.32
2019-04-11T00:29:40.712Z,83.51
2019-04-11T00:30:40.162Z,83.70
2019-04-11T00:31:41.020Z,84.36
2019-04-11T00:32:41.309Z,83.98
2019-04-11T00:33:40.430Z,83.98
2019-04-11T00:34:40.217Z,84.08
2019-04-11T00:35:40.231Z,84.17
2019-04-11T00:36:40.827Z,83.98
2019-04-11T00:37:41.218Z,84.17
2019-04-11T00:38:40.336Z,84.27
2019-04-11T00:39:40.295Z,84.94
2019-04-11T00:40:41.527Z,84.74
2019-04-11T00:41:40.312Z,84.61
2019-04-11T00:42:40.909Z,84.94
2019-04-11T00:43:42.182Z,84.51
2019-04-11T00:44:41.173Z,84.51
2019-04-11T00:45:40.363Z,84.99
2019-04-11T00:46:40.503Z,84.99
2019-04-11T00:47:41.460Z,85.08
2019-04-11T00:48:40.402Z,85.17
2019-04-11T00:49:40.816Z,85.17
2019-04-11T00:50:40.430Z,85.17
2019-04-11T00:51:40.443Z,85.55
2019-04-11T00:52:41.239Z,85.74
2019-04-11T00:53:40.467Z,85.65
2019-04-11T00:54:40.736Z,85.74
2019-04-11T00:55:40.501Z,86.03
2019-04-11T00:56:40.512Z,85.93
2019-04-11T00:57:41.132Z,86.03
2019-04-11T00:58:41.498Z,86.60
2019-04-11T00:59:40.657Z,86.79
2019-04-11T01:00:40.562Z,86.69
2019-04-11T01:01:40.902Z,86.88
2019-04-11T01:02:42.208Z,86.79
2019-04-11T01:03:40.603Z,86.60
2019-04-11T01:04:41.250Z,86.41
2019-04-11T01:05:41.429Z,86.60
2019-04-11T01:06:40.640Z,86.79
2019-04-11T01:07:40.893Z,86.98
2019-04-11T01:08:41.869Z,86.98
2019-04-11T01:09:40.678Z,86.79
2019-04-11T01:10:41.442Z,87.16
2019-04-11T01:11:40.722Z,86.98
2019-04-11T01:12:40.767Z,87.45
2019-04-11T01:13:48.582Z,87.26
2019-04-11T01:14:40.745Z,87.92
2019-04-11T01:15:40.885Z,87.54
2019-04-11T01:16:40.977Z,87.54
2019-04-11T01:17:41.319Z,88.30
2019-04-11T01:18:40.852Z,88.40
2019-04-11T01:19:40.857Z,88.30
2019-04-11T01:20:41.811Z,88.30
2019-04-11T01:21:40.913Z,88.21
2019-04-11T01:22:40.905Z,88.11
2019-04-11T01:23:40.920Z,88.30
2019-04-11T01:24:41.940Z,88.40
2019-04-11T01:25:41.039Z,88.30
2019-04-11T01:26:41.355Z,88.49
2019-04-11T01:27:41.188Z,88.68
2019-04-11T01:28:40.925Z,88.78
2019-04-11T01:29:41.803Z,88.96
2019-04-11T01:30:40.979Z,89.15
2019-04-11T01:31:42.743Z,89.06
2019-04-11T01:32:40.977Z,89.15
2019-04-11T01:33:42.123Z,89.15
2019-04-11T01:34:41.005Z,89.15
2019-04-11T01:35:41.709Z,89.15
2019-04-11T01:36:41.027Z,88.78
2019-04-11T01:37:41.876Z,88.87
2019-04-11T01:38:41.053Z,88.59
2019-04-11T01:39:41.206Z,88.59
2019-04-11T01:40:42.202Z,89.15
2019-04-11T01:41:41.091Z,88.68
2019-04-11T01:42:41.776Z,88.59
2019-04-11T01:43:52.124Z,88.92
2019-04-11T01:44:41.135Z,89.30
2019-04-11T01:45:41.344Z,89.25
2019-04-11T01:46:42.309Z,89.82
2019-04-11T01:47:41.170Z,89.77
2019-04-11T01:48:41.738Z,89.39
2019-04-11T01:49:41.194Z,89.30
2019-04-11T01:50:41.246Z,89.58
2019-04-11T01:51:42.093Z,90.06
2019-04-11T01:52:42.422Z,90.10
2019-04-11T01:53:42.150Z,90.06
2019-04-11T01:54:41.259Z,90.06
2019-04-11T01:55:41.272Z,90.06
2019-04-11T01:56:41.286Z,90.06
2019-04-11T01:57:43.076Z,89.77
2019-04-11T01:58:41.315Z,89.77
2019-04-11T01:59:41.766Z,89.96
2019-04-11T02:00:42.007Z,90.34
2019-04-11T02:01:41.352Z,90.53
2019-04-11T02:02:42.270Z,90.53
2019-04-11T02:03:41.424Z,90.44
2019-04-11T02:04:41.390Z,90.44
2019-04-11T02:05:41.402Z,91.10
2019-04-11T02:06:42.347Z,90.91
2019-04-11T02:07:41.427Z,90.72
2019-04-11T02:08:41.717Z,90.72
2019-04-11T02:09:41.452Z,90.81
2019-04-11T02:10:41.464Z,91.10
2019-04-11T02:11:41.538Z,90.72
2019-04-11T02:12:41.587Z,91.29
2019-04-11T02:13:41.784Z,90.91
2019-04-11T02:14:41.757Z,91.00
2019-04-11T02:15:41.531Z,90.81
2019-04-11T02:16:41.540Z,91.10
2019-04-11T02:17:41.554Z,91.00
2019-04-11T02:18:41.568Z,91.19
2019-04-11T02:19:42.538Z,91.29
2019-04-11T02:20:41.595Z,90.91
2019-04-11T02:21:42.093Z,91.19
2019-04-11T02:22:42.401Z,91.19
2019-04-11T02:23:41.638Z,91.29
2019-04-11T02:24:41.732Z,91.10
2019-04-11T02:25:42.771Z,91.10
2019-04-11T02:26:43.992Z,91.19
2019-04-11T02:27:42.281Z,91.19
2019-04-11T02:28:41.695Z,91.19
2019-04-11T02:29:42.564Z,91.19
2019-04-11T02:30:43.492Z,91.10
2019-04-11T02:31:42.390Z,91.29
2019-04-11T02:32:42.814Z,91.29
2019-04-11T02:33:43.195Z,91.29
2019-04-11T02:34:41.772Z,91.38
2019-04-11T02:35:42.811Z,91.67
2019-04-11T02:36:42.919Z,91.76
2019-04-11T02:37:42.258Z,91.67
2019-04-11T02:38:41.821Z,91.57
2019-04-11T02:39:42.807Z,91.38
2019-04-11T02:40:43.046Z,91.67
2019-04-11T02:41:42.160Z,92.33
2019-04-11T02:42:43.206Z,91.57
2019-04-11T02:43:44.152Z,91.67
2019-04-11T02:44:59.652Z,91.76
2019-04-11T02:45:52.639Z,91.76
2019-04-11T02:46:51.007Z,91.76
2019-04-11T02:47:45.724Z,91.67
2019-04-11T02:48:42.673Z,91.86
2019-04-11T02:49:43.451Z,91.95
2019-04-11T02:50:43.340Z,91.86
2019-04-11T02:51:42.990Z,91.76
2019-04-11T02:52:42.285Z,91.86
2019-04-11T02:53:42.040Z,92.14
2019-04-11T02:54:43.044Z,92.24
2019-04-11T02:55:43.645Z,91.76
2019-04-11T02:56:43.567Z,91.76
2019-04-11T02:57:43.010Z,91.76
2019-04-11T02:58:43.741Z,91.76
2019-04-11T02:59:44.464Z,92.24
2019-04-11T03:00:42.295Z,91.57
2019-04-11T03:01:42.147Z,92.33
2019-04-11T03:02:44.218Z,91.95
2019-04-11T03:03:42.428Z,92.05
2019-04-11T03:04:43.726Z,91.86
2019-04-11T03:05:43.989Z,91.67
2019-04-11T03:06:43.674Z,91.95
2019-04-11T03:07:42.506Z,91.76
2019-04-11T03:08:43.508Z,92.33
2019-04-11T03:09:43.829Z,91.95
2019-04-11T03:10:43.044Z,91.95
2019-04-11T03:11:42.990Z,92.05
2019-04-11T03:12:43.568Z,92.14
2019-04-11T03:13:42.308Z,92.14
2019-04-11T03:15:01.968Z,92.24
2019-04-11T03:15:57.376Z,91.76
2019-04-11T03:16:53.071Z,91.48
2019-04-11T03:17:44.523Z,91.95
2019-04-11T03:19:01.184Z,91.76
2019-04-11T03:19:58.254Z,92.24
2019-04-11T03:20:48.420Z,92.14
2019-04-11T03:21:46.387Z,92.14
2019-04-11T03:22:42.533Z,92.24
2019-04-11T03:23:43.854Z,92.24
2019-04-11T03:24:42.985Z,92.05
2019-04-11T03:25:42.715Z,92.14
2019-04-11T03:26:43.579Z,92.05
2019-04-11T03:27:43.260Z,92.33
2019-04-11T03:28:45.138Z,91.86
2019-04-11T03:29:43.123Z,91.67
2019-04-11T03:31:03.828Z,91.76
2019-04-11T03:32:24.506Z,92.05
2019-04-11T03:33:46.839Z,91.48
2019-04-11T03:34:25.201Z,91.38
2019-04-11T03:38:07.645Z,91.29
2019-04-11T03:39:00.255Z,90.63
2019-04-11T03:39:59.266Z,91.48
2019-04-11T03:41:00.369Z,91.48
2019-04-11T03:41:59.718Z,91.95
2019-04-11T03:42:57.043Z,91.76
2019-04-11T03:43:54.122Z,91.67
2019-04-11T03:44:47.885Z,91.57
2019-04-11T03:45:58.958Z,91.48
2019-04-11T03:47:01.823Z,91.76
2019-04-11T03:48:00.922Z,91.76
2019-04-11T03:48:53.278Z,91.76
2019-04-11T03:49:50.988Z,91.48
2019-04-11T03:50:44.280Z,91.48
2019-04-11T03:51:43.621Z,91.57
2019-04-11T03:52:43.023Z,92.14
2019-04-11T03:53:43.186Z,91.67
2019-04-11T03:54:42.826Z,91.86
2019-04-11T03:55:43.370Z,91.48
2019-04-11T03:56:43.347Z,91.72
2019-04-11T03:57:42.807Z,92.05
2019-04-11T03:58:43.794Z,91.86
2019-04-11T03:59:43.767Z,91.76
2019-04-11T04:00:44.394Z,91.57
2019-04-11T04:01:44.237Z,91.57
2019-04-11T04:02:44.272Z,91.86
2019-04-11T04:03:44.530Z,91.53
2019-04-11T04:04:43.635Z,91.48
2019-04-11T04:05:44.402Z,92.29
2019-04-11T04:06:43.444Z,92.24
2019-04-11T04:07:44.171Z,91.95
2019-04-11T04:08:44.260Z,92.05
2019-04-11T04:09:44.056Z,92.00
2019-04-11T04:10:43.657Z,92.38
2019-04-11T04:11:44.845Z,91.81
2019-04-11T04:12:43.406Z,92.29
2019-04-11T04:13:43.006Z,92.57
2019-04-11T04:14:44.607Z,92.76
2019-04-11T04:15:55.839Z,92.76
2019-04-11T04:16:47.889Z,92.57
2019-04-11T04:17:43.354Z,92.76
2019-04-11T04:18:43.762Z,92.94
2019-04-11T04:19:43.747Z,93.23
2019-04-11T04:20:43.886Z,92.38
2019-04-11T04:21:43.489Z,92.66
2019-04-11T04:22:45.622Z,93.23
2019-04-11T04:23:43.350Z,93.13
2019-04-11T04:24:44.782Z,92.94
2019-04-11T04:25:46.692Z,93.23
2019-04-11T04:26:43.254Z,93.61
2019-04-11T04:27:45.031Z,93.13
2019-04-11T04:28:43.199Z,92.94
2019-04-11T04:29:46.683Z,93.04
2019-04-11T04:30:44.692Z,93.32
2019-04-11T04:31:43.221Z,93.51
2019-04-11T04:32:44.952Z,93.61
2019-04-11T04:33:45.281Z,93.32
2019-04-11T04:34:44.343Z,93.61
2019-04-11T04:35:44.778Z,93.42
2019-04-11T04:36:43.281Z,93.61
2019-04-11T04:37:43.913Z,93.32
2019-04-11T04:38:44.581Z,93.70
2019-04-11T04:39:43.647Z,93.32
2019-04-11T04:40:58.433Z,93.89
2019-04-11T04:41:51.821Z,93.70
2019-04-11T04:42:47.866Z,93.80
2019-04-11T04:43:44.183Z,93.89
2019-04-11T04:44:45.160Z,93.99
2019-04-11T04:46:06.585Z,93.70
2019-04-11T04:46:58.620Z,93.70
2019-04-11T04:47:47.894Z,93.61
2019-04-11T04:48:44.911Z,93.89
2019-04-11T04:49:43.670Z,93.70
2019-04-11T04:50:44.827Z,93.99
2019-04-11T04:51:43.763Z,93.99
2019-04-11T04:52:44.857Z,94.37
2019-04-11T04:53:45.062Z,94.46
2019-04-11T04:54:44.376Z,94.56
2019-04-11T04:55:43.712Z,94.37
2019-04-11T04:56:45.366Z,94.56
2019-04-11T04:57:44.841Z,94.37
2019-04-11T04:58:44.430Z,94.27
2019-04-11T04:59:44.752Z,94.46
2019-04-11T05:00:43.680Z,94.56
2019-04-11T05:01:44.255Z,94.74
2019-04-11T05:02:44.212Z,94.65
2019-04-11T05:03:44.646Z,94.65
2019-04-11T05:04:43.846Z,94.93
2019-04-11T05:05:44.242Z,95.03
2019-04-11T05:06:47.727Z,95.21
2019-04-11T05:07:46.049Z,95.03
2019-04-11T05:08:45.009Z,95.31
2019-04-11T05:09:43.680Z,95.31
2019-04-11T05:10:44.841Z,95.31
2019-04-11T05:11:44.640Z,94.93
2019-04-11T05:12:43.951Z,95.50
2019-04-11T05:13:48.175Z,95.40
2019-04-11T05:14:43.741Z,95.59
2019-04-11T05:15:45.258Z,95.59
2019-04-11T05:16:44.190Z,95.69
2019-04-11T05:17:44.436Z,95.31
2019-04-11T05:18:43.953Z,95.50
2019-04-11T05:19:44.544Z,95.88
2019-04-11T05:20:44.203Z,95.69
2019-04-11T05:21:43.821Z,95.40
2019-04-11T05:22:43.835Z,95.59
2019-04-11T05:23:43.856Z,95.69
2019-04-11T05:24:43.859Z,95.50
2019-04-11T05:25:44.611Z,95.78
2019-04-11T05:26:43.966Z,95.50
2019-04-11T05:27:43.895Z,95.69
2019-04-11T05:28:43.907Z,96.07
2019-04-11T05:29:43.996Z,96.16
2019-04-11T05:30:44.873Z,95.88
2019-04-11T05:31:44.880Z,96.26
2019-04-11T05:32:45.100Z,96.26
2019-04-11T05:33:43.964Z,96.35
2019-04-11T05:34:43.977Z,95.78
2019-04-11T05:35:43.991Z,96.16
2019-04-11T05:36:44.949Z,96.26
2019-04-11T05:37:45.036Z,96.35
2019-04-11T05:38:44.265Z,96.16
2019-04-11T05:39:44.876Z,96.26
2019-04-11T05:40:44.049Z,96.07
2019-04-11T05:41:46.621Z,96.26
2019-04-11T05:42:45.116Z,96.35
2019-04-11T05:43:45.126Z,96.35
2019-04-11T05:44:45.123Z,96.35
2019-04-11T05:45:44.109Z,96.64
2019-04-11T05:46:52.396Z,96.64
2019-04-11T05:47:48.109Z,96.54
2019-04-11T05:48:45.168Z,96.45
2019-04-11T05:49:45.059Z,96.26
2019-04-11T05:50:47.708Z,96.26
2019-04-11T05:51:47.092Z,96.54
2019-04-11T05:52:44.225Z,96.54
2019-04-11T05:53:44.202Z,96.45
2019-04-11T05:54:47.622Z,96.54
2019-04-11T05:55:45.822Z,96.64
2019-04-11T05:56:46.537Z,96.07
2019-04-11T05:57:44.951Z,96.45
2019-04-11T05:58:46.990Z,96.35
2019-04-11T05:59:45.965Z,96.26
2019-04-11T06:00:44.456Z,96.45
2019-04-11T06:01:44.613Z,96.45
2019-04-11T06:02:45.561Z,96.35
2019-04-11T06:03:45.505Z,96.35
2019-04-11T06:04:46.963Z,96.64
2019-04-11T06:05:44.673Z,97.02
2019-04-11T06:06:44.409Z,96.35
2019-04-11T06:07:47.648Z,96.16
2019-04-11T06:08:44.385Z,96.26
2019-04-11T06:09:44.410Z,96.26
2019-04-11T06:10:45.128Z,96.07
2019-04-11T06:11:45.284Z,96.07
2019-04-11T06:12:45.524Z,96.26
2019-04-11T06:13:44.733Z,96.16
2019-04-11T06:14:44.534Z,96.07
2019-04-11T06:15:44.538Z,95.97
2019-04-11T06:16:50.281Z,96.07
2019-04-11T06:17:44.531Z,95.97
2019-04-11T06:18:45.796Z,95.78
2019-04-11T06:19:44.548Z,95.59
2019-04-11T06:20:45.203Z,96.12
2019-04-11T06:21:44.540Z,96.21
2019-04-11T06:22:45.539Z,96.12
2019-04-11T06:23:45.578Z,95.83
2019-04-11T06:24:44.679Z,95.78
2019-04-11T06:25:46.762Z,95.55
2019-04-11T06:26:44.987Z,95.93
2019-04-11T06:27:45.495Z,95.78
2019-04-11T06:28:44.629Z,95.64
2019-04-11T06:29:45.181Z,95.74
2019-04-11T06:30:44.653Z,95.93
2019-04-11T06:31:45.385Z,95.93
2019-04-11T06:32:45.760Z,95.36
2019-04-11T06:33:44.855Z,95.26
2019-04-11T06:34:44.702Z,95.07
2019-04-11T06:35:44.714Z,94.98
2019-04-11T06:36:45.253Z,94.60
2019-04-11T06:37:45.665Z,94.89
2019-04-11T06:38:44.926Z,94.32
2019-04-11T06:39:45.312Z,94.46
2019-04-11T06:40:45.999Z,93.80
2019-04-11T06:41:44.789Z,93.61
2019-04-11T06:42:45.508Z,93.32
2019-04-11T06:43:44.817Z,92.94
2019-04-11T06:44:45.949Z,92.23
2019-04-11T06:45:46.019Z,92.42
2019-04-11T06:46:53.925Z,92.04
2019-04-11T06:47:45.080Z,90.81
2019-04-11T06:48:45.517Z,90.57
2019-04-11T06:49:44.894Z,90.19
2019-04-11T06:50:44.912Z,89.06
2019-04-11T06:51:44.924Z,89.00
2019-04-11T06:52:45.372Z,88.15
2019-04-11T06:53:45.040Z,87.49
2019-04-11T06:54:45.429Z,85.78
2019-04-11T06:55:44.981Z,85.53
2019-04-11T06:56:45.500Z,85.16
2019-04-11T06:57:45.822Z,84.21
2019-04-11T06:58:45.735Z,84.30
2019-04-11T06:59:45.040Z,83.68
2019-04-11T07:00:45.289Z,83.87
2019-04-11T07:01:45.412Z,83.87
2019-04-11T07:02:45.086Z,82.64
2019-04-11T07:03:45.103Z,82.54
2019-04-11T07:04:46.070Z,81.82
2019-04-11T07:05:45.130Z,81.35
2019-04-11T07:06:45.959Z,80.49
2019-04-11T07:07:45.216Z,80.02
2019-04-11T07:08:45.179Z,79.54
2019-04-11T07:09:45.234Z,79.63
2019-04-11T07:10:45.210Z,80.11
2019-04-11T07:11:45.226Z,78.97
2019-04-11T07:12:45.255Z,78.21
2019-04-11T07:13:45.560Z,78.30
2019-04-11T07:14:45.521Z,78.45
2019-04-11T07:15:46.323Z,78.93
2019-04-11T07:16:45.307Z,78.83
2019-04-11T07:17:45.917Z,78.83
2019-04-11T07:18:46.397Z,78.93
2019-04-11T07:19:45.854Z,78.83
2019-04-11T07:20:45.744Z,79.03
2019-04-11T07:21:46.148Z,78.27
2019-04-11T07:22:46.598Z,78.45
2019-04-11T07:23:45.414Z,78.17
2019-04-11T07:24:45.432Z,77.60
2019-04-11T07:25:45.445Z,77.51
2019-04-11T07:26:45.857Z,77.98
2019-04-11T07:27:45.475Z,77.31
2019-04-11T07:28:45.495Z,77.79
2019-04-11T07:29:46.402Z,77.22
2019-04-11T07:30:45.524Z,77.31
2019-04-11T07:31:46.257Z,76.75
2019-04-11T07:32:45.560Z,76.93
2019-04-11T07:33:45.573Z,76.56
2019-04-11T07:34:45.732Z,76.40
2019-04-11T07:35:45.605Z,75.84
2019-04-11T07:36:46.238Z,76.31
2019-04-11T07:37:47.141Z,75.68
2019-04-11T07:38:48.592Z,74.92
2019-04-11T07:39:45.677Z,73.11
2019-04-11T07:40:45.691Z,71.97
2019-04-11T07:41:45.853Z,71.22
2019-04-11T07:42:46.731Z,70.01
2019-04-11T07:43:45.741Z,69.73
2019-04-11T07:44:45.758Z,69.15
2019-04-11T07:45:46.967Z,68.77
2019-04-11T07:46:45.791Z,68.40
2019-04-11T07:47:46.057Z,68.59
2019-04-11T07:48:46.786Z,68.49
2019-04-11T07:49:46.004Z,68.21
2019-04-11T07:50:46.524Z,68.81
2019-04-11T07:51:45.885Z,68.15
2019-04-11T07:52:46.921Z,67.38
2019-04-11T07:53:46.027Z,67.19
2019-04-11T07:54:45.950Z,67.19
2019-04-11T07:55:46.614Z,66.72
2019-04-11T07:56:46.325Z,66.53
2019-04-11T07:57:46.807Z,66.62
2019-04-11T07:58:46.012Z,66.72
2019-04-11T07:59:46.750Z,66.72
2019-04-11T08:00:49.367Z,66.59
2019-04-11T08:01:46.873Z,67.25
2019-04-11T08:02:46.084Z,67.44
2019-04-11T08:03:46.976Z,67.35
2019-04-11T08:04:47.266Z,67.69
2019-04-11T08:05:46.721Z,67.22
2019-04-11T08:06:46.156Z,67.60
2019-04-11T08:07:46.868Z,68.27
2019-04-11T08:08:47.113Z,68.55
2019-04-11T08:09:46.203Z,68.93
2019-04-11T08:10:46.224Z,68.84
2019-04-11T08:11:46.318Z,69.60
2019-04-11T08:12:46.325Z,69.37
2019-04-11T08:13:47.180Z,69.60
2019-04-11T08:14:46.314Z,70.04
2019-04-11T08:15:46.384Z,69.79
2019-04-11T08:16:46.896Z,70.23
2019-04-11T08:17:46.382Z,69.27
2019-04-11T08:18:46.385Z,69.27
2019-04-11T08:19:46.920Z,68.80
2019-04-11T08:20:46.397Z,67.94
2019-04-11T08:21:46.412Z,68.42
2019-04-11T08:22:47.409Z,68.23
2019-04-11T08:23:46.451Z,68.23
2019-04-11T08:24:46.867Z,68.99
2019-04-11T08:25:47.418Z,68.23
2019-04-11T08:26:46.495Z,68.13
2019-04-11T08:27:56.031Z,68.33
2019-04-11T08:28:50.246Z,68.42
2019-04-11T08:29:48.865Z,68.42
2019-04-11T08:30:46.885Z,67.94
2019-04-11T08:31:46.640Z,68.42
2019-04-11T08:32:46.602Z,68.13
2019-04-11T08:33:46.761Z,67.76
2019-04-11T08:34:47.860Z,68.23
2019-04-11T08:35:46.646Z,68.61
2019-04-11T08:36:47.694Z,68.61
2019-04-11T08:37:47.524Z,68.71
2019-04-11T08:38:46.775Z,68.13
2019-04-11T08:39:47.170Z,67.94
2019-04-11T08:40:47.179Z,67.57
2019-04-11T08:41:47.548Z,67.28
2019-04-11T08:42:46.758Z,67.85
2019-04-11T08:43:47.658Z,67.85
2019-04-11T08:44:47.995Z,68.33
2019-04-11T08:45:46.809Z,68.52
2019-04-11T08:46:46.873Z,68.01
2019-04-11T08:47:49.238Z,68.10
2019-04-11T08:48:46.856Z,68.29
2019-04-11T08:49:48.021Z,68.10
2019-04-11T08:50:46.997Z,68.39
2019-04-11T08:51:47.419Z,68.39
2019-04-11T08:52:46.922Z,68.58
2019-04-11T08:53:46.937Z,68.86
2019-04-11T08:54:47.973Z,68.39
2019-04-11T08:55:53.627Z,68.29
2019-04-11T08:56:47.368Z,68.67
2019-04-11T08:57:47.741Z,68.77
2019-04-11T08:58:47.083Z,69.05
2019-04-11T08:59:47.037Z,69.05
2019-04-11T09:00:47.050Z,68.77
2019-04-11T09:01:47.230Z,68.96
2019-04-11T09:02:47.082Z,69.91
2019-04-11T09:03:57.361Z,70.19
2019-04-11T09:04:48.151Z,70.00
2019-04-11T09:05:47.131Z,69.62
2019-04-11T09:06:47.201Z,69.34
2019-04-11T09:07:47.161Z,69.91
2019-04-11T09:08:47.180Z,69.71
2019-04-11T09:09:47.496Z,68.80
2019-04-11T09:10:49.178Z,68.13
2019-04-11T09:11:47.225Z,67.85
2019-04-11T09:12:47.245Z,67.28
2019-04-11T09:13:47.343Z,67.38
2019-04-11T09:14:48.451Z,67.38
2019-04-11T09:15:47.293Z,67.00
2019-04-11T09:16:47.913Z,66.14
2019-04-11T09:17:56.861Z,65.76
2019-04-11T09:18:47.343Z,65.76
2019-04-11T09:19:47.362Z,65.67
2019-04-11T09:20:47.766Z,65.76
2019-04-11T09:21:48.668Z,65.76
2019-04-11T09:22:47.411Z,65.19
2019-04-11T09:23:48.118Z,65.57
2019-04-11T09:24:48.459Z,65.19
2019-04-11T09:25:51.314Z,65.00
2019-04-11T09:26:47.880Z,65.28
2019-04-11T09:27:47.492Z,65.09
2019-04-11T09:28:47.505Z,65.28
2019-04-11T09:29:48.407Z,64.90
2019-04-11T09:30:47.539Z,64.34
2019-04-11T09:31:49.097Z,64.34
2019-04-11T09:32:48.589Z,63.76
2019-04-11T09:33:47.586Z,62.62
2019-04-11T09:34:48.209Z,62.24
2019-04-11T09:35:47.622Z,63.01
2019-04-11T09:36:47.639Z,62.72
2019-04-11T09:37:47.655Z,63.01
2019-04-11T09:38:48.612Z,63.01
2019-04-11T09:39:47.779Z,62.81
2019-04-11T09:40:47.963Z,63.10
2019-04-11T09:41:48.906Z,62.91
2019-04-11T09:42:47.738Z,63.10
2019-04-11T09:43:48.446Z,64.14
2019-04-11T09:44:48.919Z,63.67
2019-04-11T09:45:47.942Z,63.48
2019-04-11T09:46:48.830Z,63.04
2019-04-11T09:47:47.820Z,62.34
2019-04-11T09:48:48.362Z,61.80
2019-04-11T09:49:47.851Z,61.23
2019-04-11T09:50:48.921Z,61.61
2019-04-11T09:51:47.889Z,61.42
2019-04-11T09:52:47.906Z,61.42
2019-04-11T09:53:47.926Z,61.32
2019-04-11T09:54:48.481Z,61.23
2019-04-11T09:55:47.971Z,61.04
2019-04-11T09:56:48.292Z,61.32
2019-04-11T09:57:48.259Z,61.42
2019-04-11T09:58:48.008Z,61.71
2019-04-11T09:59:48.028Z,61.04
2019-04-11T10:00:48.048Z,60.75
2019-04-11T10:01:48.058Z,60.75
2019-04-11T10:02:48.366Z,61.32
2019-04-11T10:03:48.619Z,61.23
2019-04-11T10:04:48.185Z,61.42
2019-04-11T10:05:48.610Z,60.66
2019-04-11T10:06:48.745Z,60.28
2019-04-11T10:07:48.230Z,60.09
2019-04-11T10:08:49.117Z,59.99
2019-04-11T10:09:48.487Z,60.12
2019-04-11T10:10:48.981Z,59.55
2019-04-11T10:11:48.506Z,59.93
2019-04-11T10:12:48.619Z,59.07
2019-04-11T10:13:49.069Z,58.50
2019-04-11T10:14:48.291Z,58.59
2019-04-11T10:15:48.304Z,58.12
2019-04-11T10:16:48.634Z,57.84
2019-04-11T10:17:48.495Z,57.45
2019-04-11T10:18:49.417Z,57.45
2019-04-11T10:19:48.461Z,57.93
2019-04-11T10:20:48.753Z,58.31
2019-04-11T10:21:48.411Z,58.34
2019-04-11T10:22:48.444Z,58.06
2019-04-11T10:23:49.284Z,58.06
2019-04-11T10:24:48.510Z,57.96
2019-04-11T10:25:49.610Z,57.10
2019-04-11T10:26:48.505Z,56.92
2019-04-11T10:27:49.041Z,56.44
2019-04-11T10:28:49.485Z,55.96
2019-04-11T10:29:48.561Z,56.53
2019-04-11T10:30:48.578Z,56.34
2019-04-11T10:31:48.598Z,56.53
2019-04-11T10:32:49.634Z,56.82
2019-04-11T10:33:49.013Z,56.53
2019-04-11T10:34:48.655Z,56.82
2019-04-11T10:35:48.670Z,56.53
2019-04-11T10:36:49.479Z,56.15
2019-04-11T10:37:49.594Z,56.34
2019-04-11T10:38:48.850Z,55.83
2019-04-11T10:39:49.250Z,56.15
2019-04-11T10:40:48.761Z,56.92
2019-04-11T10:41:49.117Z,56.31
2019-04-11T10:42:48.812Z,56.12
2019-04-11T10:43:49.568Z,55.74
2019-04-11T10:44:49.794Z,56.41
2019-04-11T10:45:48.991Z,56.98
2019-04-11T10:46:49.552Z,56.92
2019-04-11T10:47:49.283Z,56.98
2019-04-11T10:48:50.313Z,56.98
2019-04-11T10:49:48.930Z,57.01
2019-04-11T10:50:48.944Z,57.39
2019-04-11T10:51:49.747Z,57.01
2019-04-11T10:52:48.982Z,56.92
2019-04-11T10:53:49.228Z,57.39
2019-04-11T10:54:49.160Z,57.48
2019-04-11T10:55:49.564Z,57.77
2019-04-11T10:56:49.544Z,57.20
2019-04-11T10:57:49.070Z,57.29
2019-04-11T10:58:49.157Z,57.67
2019-04-11T10:59:49.118Z,57.77
2019-04-11T11:00:49.560Z,57.77
2019-04-11T11:01:49.145Z,58.03
2019-04-11T11:02:49.397Z,58.40
2019-04-11T11:03:49.352Z,58.50
2019-04-11T11:04:50.482Z,58.69
2019-04-11T11:05:49.348Z,58.40
2019-04-11T11:06:49.233Z,58.79
2019-04-11T11:07:49.251Z,57.84
2019-04-11T11:08:50.017Z,58.50
2019-04-11T11:09:50.368Z,58.50
2019-04-11T11:10:50.018Z,58.59
2019-04-11T11:11:49.349Z,58.12
2019-04-11T11:12:49.646Z,58.40
2019-04-11T11:13:50.094Z,58.31
2019-04-11T11:14:49.376Z,58.79
2019-04-11T11:15:49.812Z,58.69
2019-04-11T11:16:50.640Z,58.31
2019-04-11T11:18:20.678Z,58.59
2019-04-11T11:19:20.651Z,58.40
2019-04-11T11:19:59.638Z,57.45
2019-04-11T11:20:54.985Z,57.45
2019-04-11T11:21:49.499Z,57.17
2019-04-11T11:22:49.518Z,57.65
2019-04-11T11:23:50.734Z,57.36
2019-04-11T11:24:50.311Z,57.74
2019-04-11T11:25:51.540Z,58.79
2019-04-11T11:26:52.096Z,58.50
2019-04-11T11:27:50.307Z,58.12
2019-04-11T11:28:50.837Z,57.84
2019-04-11T11:29:49.644Z,56.41
2019-04-11T11:30:49.662Z,56.03
2019-04-11T11:31:49.680Z,55.93
2019-04-11T11:32:49.739Z,56.03
2019-04-11T11:33:50.886Z,56.03
2019-04-11T11:34:52.945Z,55.93
2019-04-11T11:35:49.971Z,56.12
2019-04-11T11:36:50.427Z,56.44
2019-04-11T11:37:49.789Z,56.12
2019-04-11T11:38:50.200Z,56.41
2019-04-11T11:39:51.038Z,56.34
2019-04-11T11:40:50.035Z,56.53
2019-04-11T11:41:49.863Z,56.41
2019-04-11T11:42:50.535Z,56.82
2019-04-11T11:43:49.898Z,57.10
2019-04-11T11:44:49.916Z,56.79
2019-04-11T11:45:54.579Z,56.60
2019-04-11T11:46:50.124Z,57.17
2019-04-11T11:47:51.084Z,56.82
2019-04-11T11:48:51.447Z,56.88
2019-04-11T11:49:57.057Z,57.17
2019-04-11T11:50:51.381Z,57.74
2019-04-11T11:51:50.113Z,57.07
2019-04-11T11:52:51.021Z,57.84
2019-04-11T11:53:51.022Z,57.77
2019-04-11T11:54:50.106Z,58.25
2019-04-11T11:55:50.115Z,57.87
2019-04-11T11:56:50.714Z,57.67
2019-04-11T11:57:50.925Z,57.87
2019-04-11T11:58:55.398Z,57.58
2019-04-11T11:59:50.418Z,57.39
2019-04-11T12:00:53.518Z,57.77
2019-04-11T12:01:52.305Z,57.87
2019-04-11T12:02:52.003Z,58.34
2019-04-11T12:03:50.780Z,58.22
2019-04-11T12:04:50.286Z,58.79
2019-04-11T12:05:51.979Z,59.27
2019-04-11T12:06:55.934Z,59.83
2019-04-11T12:07:51.444Z,59.45
2019-04-11T12:08:51.331Z,59.93
2019-04-11T12:09:50.932Z,59.93
2019-04-11T12:10:51.325Z,60.41
2019-04-11T12:11:52.436Z,60.12
2019-04-11T12:12:50.426Z,60.21
2019-04-11T12:13:51.485Z,60.88
2019-04-11T12:14:51.655Z,61.26
2019-04-11T12:15:51.120Z,61.64
2019-04-11T12:16:54.973Z,61.35
2019-04-11T12:17:50.504Z,61.35
2019-04-11T12:18:53.035Z,61.64
2019-04-11T12:19:53.836Z,61.83
2019-04-11T12:20:51.364Z,62.30
2019-04-11T12:21:51.504Z,62.08
2019-04-11T12:22:52.087Z,62.27
2019-04-11T12:23:58.049Z,62.18
2019-04-11T12:24:50.628Z,62.08
2019-04-11T12:25:51.576Z,62.18
2019-04-11T12:26:51.767Z,62.18
2019-04-11T12:27:50.682Z,62.18
2019-04-11T12:28:52.059Z,61.99
2019-04-11T12:29:51.944Z,61.99
2019-04-11T12:30:53.077Z,62.27
2019-04-11T12:31:50.750Z,62.56
2019-04-11T12:32:50.827Z,62.85
2019-04-11T12:33:52.048Z,62.30
2019-04-11T12:34:51.407Z,62.21
2019-04-11T12:35:50.837Z,62.21
2019-04-11T12:36:52.672Z,62.02
2019-04-11T12:37:52.894Z,61.64
2019-04-11T12:38:54.670Z,61.07
2019-04-11T12:39:50.968Z,61.16
2019-04-11T12:40:50.907Z,61.16
2019-04-11T12:41:50.925Z,60.60
2019-04-11T12:42:50.945Z,60.44
2019-04-11T12:43:50.967Z,60.72
2019-04-11T12:44:50.993Z,60.34
2019-04-11T12:45:51.000Z,60.44
2019-04-11T12:46:51.018Z,60.24
2019-04-11T12:47:51.036Z,60.05
2019-04-11T12:48:51.056Z,59.96
2019-04-11T12:49:53.032Z,59.67
2019-04-11T12:50:51.089Z,60.34
2019-04-11T12:51:51.111Z,59.86
2019-04-11T12:52:51.127Z,59.77
2019-04-11T12:53:51.146Z,59.96
2019-04-11T12:54:51.166Z,59.96
2019-04-11T12:55:51.183Z,59.86